sensor_id;sensor_type;location;lat;lon;timestamp;pressure;altitude;pressure_sealevel;temperature;humidity
74573;BME280;73017;50.810;4.428;2024-01-07T00:01:15;101033.75;;;19.88;44.65
74573;BME280;73017;50.810;4.428;2024-01-07T00:03:41;101058.00;;;20.02;44.74
74573;BME280;73017;50.810;4.428;2024-01-07T00:06:09;101054.16;;;19.99;45.04
74573;BME280;73017;50.810;4.428;2024-01-07T00:08:35;101058.00;;;20.02;44.78
74573;BME280;73017;50.810;4.428;2024-01-07T00:11:01;101056.00;;;19.99;44.41
74573;BME280;73017;50.810;4.428;2024-01-07T00:13:26;101055.34;;;20.02;44.30
74573;BME280;73017;50.810;4.428;2024-01-07T00:15:51;101068.19;;;20.00;44.19
74573;BME280;73017;50.810;4.428;2024-01-07T00:18:19;101068.53;;;19.98;45.90
74573;BME280;73017;50.810;4.428;2024-01-07T00:20:45;101045.41;;;19.83;46.97
74573;BME280;73017;50.810;4.428;2024-01-07T00:23:10;101067.41;;;19.99;46.60
74573;BME280;73017;50.810;4.428;2024-01-07T00:25:36;101038.53;;;19.82;46.51
74573;BME280;73017;50.810;4.428;2024-01-07T00:28:01;101063.31;;;20.02;46.88
74573;BME280;73017;50.810;4.428;2024-01-07T00:30:27;101045.81;;;19.85;47.02
74573;BME280;73017;50.810;4.428;2024-01-07T00:32:52;101055.50;;;19.93;48.02
74573;BME280;73017;50.810;4.428;2024-01-07T00:35:18;101061.16;;;19.92;46.37
74573;BME280;73017;50.810;4.428;2024-01-07T00:37:44;101063.38;;;19.90;47.55
74573;BME280;73017;50.810;4.428;2024-01-07T00:40:10;101075.38;;;19.99;47.23
74573;BME280;73017;50.810;4.428;2024-01-07T00:42:35;101054.88;;;19.84;47.08
74573;BME280;73017;50.810;4.428;2024-01-07T00:45:01;101067.31;;;19.96;46.11
74573;BME280;73017;50.810;4.428;2024-01-07T00:47:26;101077.16;;;19.95;47.47
74573;BME280;73017;50.810;4.428;2024-01-07T00:49:52;101064.56;;;19.92;47.53
74573;BME280;73017;50.810;4.428;2024-01-07T00:52:18;101080.31;;;20.01;46.71
74573;BME280;73017;50.810;4.428;2024-01-07T00:54:43;101075.38;;;19.99;46.95
74573;BME280;73017;50.810;4.428;2024-01-07T00:57:10;101051.78;;;19.82;46.76
74573;BME280;73017;50.810;4.428;2024-01-07T00:59:37;101064.03;;;19.87;47.05
74573;BME280;73017;50.810;4.428;2024-01-07T01:02:03;101078.38;;;19.98;47.40
74573;BME280;73017;50.810;4.428;2024-01-07T01:04:28;101049.84;;;19.79;46.51
74573;BME280;73017;50.810;4.428;2024-01-07T01:06:54;101056.00;;;19.83;46.81
74573;BME280;73017;50.810;4.428;2024-01-07T01:09:19;101071.22;;;19.86;46.42
74573;BME280;73017;50.810;4.428;2024-01-07T01:11:45;101082.91;;;19.97;47.03
74573;BME280;73017;50.810;4.428;2024-01-07T01:14:10;101073.22;;;19.89;47.04
74573;BME280;73017;50.810;4.428;2024-01-07T01:16:36;101078.97;;;19.91;47.38
74573;BME280;73017;50.810;4.428;2024-01-07T01:19:01;101083.91;;;19.93;47.83
74573;BME280;73017;50.810;4.428;2024-01-07T01:21:27;101090.00;;;19.93;47.36
74573;BME280;73017;50.810;4.428;2024-01-07T01:23:54;101067.59;;;19.78;46.48
74573;BME280;73017;50.810;4.428;2024-01-07T01:26:19;101089.31;;;19.96;47.26
74573;BME280;73017;50.810;4.428;2024-01-07T01:28:45;101064.28;;;19.81;46.41
74573;BME280;73017;50.810;4.428;2024-01-07T01:31:14;101087.00;;;19.95;46.69
74573;BME280;73017;50.810;4.428;2024-01-07T01:33:40;101072.84;;;19.75;46.15
74573;BME280;73017;50.810;4.428;2024-01-07T01:36:05;101076.69;;;19.77;46.64
74573;BME280;73017;50.810;4.428;2024-01-07T01:38:31;101089.81;;;19.86;46.55
74573;BME280;73017;50.810;4.428;2024-01-07T01:40:57;101078.47;;;19.73;45.77
74573;BME280;73017;50.810;4.428;2024-01-07T01:43:29;101110.44;;;19.93;45.71
74573;BME280;73017;50.810;4.428;2024-01-07T01:45:56;101111.13;;;19.90;45.94
74573;BME280;73017;50.810;4.428;2024-01-07T01:48:22;101110.78;;;19.91;46.41
74573;BME280;73017;50.810;4.428;2024-01-07T01:50:49;101110.25;;;19.86;45.70
74573;BME280;73017;50.810;4.428;2024-01-07T01:53:15;101117.53;;;19.89;46.06
74573;BME280;73017;50.810;4.428;2024-01-07T01:55:42;101120.53;;;19.87;46.25
74573;BME280;73017;50.810;4.428;2024-01-07T01:58:13;101124.06;;;19.91;46.35
74573;BME280;73017;50.810;4.428;2024-01-07T02:00:40;101099.78;;;19.77;47.74
74573;BME280;73017;50.810;4.428;2024-01-07T02:03:05;101117.19;;;19.90;46.39
74573;BME280;73017;50.810;4.428;2024-01-07T02:05:31;101117.44;;;19.85;46.64
74573;BME280;73017;50.810;4.428;2024-01-07T02:07:58;101119.31;;;19.85;46.58
74573;BME280;73017;50.810;4.428;2024-01-07T02:10:24;101117.78;;;19.84;46.70
74573;BME280;73017;50.810;4.428;2024-01-07T02:12:49;101132.69;;;19.88;45.63
74573;BME280;73017;50.810;4.428;2024-01-07T02:15:15;101109.09;;;19.71;46.40
74573;BME280;73017;50.810;4.428;2024-01-07T02:17:41;101107.84;;;19.68;45.86
74573;BME280;73017;50.810;4.428;2024-01-07T02:20:06;101133.38;;;19.85;46.71
74573;BME280;73017;50.810;4.428;2024-01-07T02:22:32;101137.22;;;19.88;46.63
74573;BME280;73017;50.810;4.428;2024-01-07T02:24:58;101137.53;;;19.86;47.16
74573;BME280;73017;50.810;4.428;2024-01-07T02:27:23;101114.25;;;19.67;46.16
74573;BME280;73017;50.810;4.428;2024-01-07T02:29:49;101125.00;;;19.71;45.37
74573;BME280;73017;50.810;4.428;2024-01-07T02:32:14;101141.22;;;19.81;45.61
74573;BME280;73017;50.810;4.428;2024-01-07T02:34:40;101120.00;;;19.69;45.72
74573;BME280;73017;50.810;4.428;2024-01-07T02:37:05;101150.47;;;19.88;45.17
74573;BME280;73017;50.810;4.428;2024-01-07T02:39:30;101118.88;;;19.70;46.59
74573;BME280;73017;50.810;4.428;2024-01-07T02:41:56;101137.59;;;19.74;45.88
74573;BME280;73017;50.810;4.428;2024-01-07T02:44:21;101164.84;;;19.87;45.48
74573;BME280;73017;50.810;4.428;2024-01-07T02:46:47;101129.38;;;19.67;44.72
74573;BME280;73017;50.810;4.428;2024-01-07T02:49:13;101135.47;;;19.67;46.12
74573;BME280;73017;50.810;4.428;2024-01-07T02:51:38;101133.94;;;19.66;45.00
74573;BME280;73017;50.810;4.428;2024-01-07T02:54:04;101154.91;;;19.84;45.68
74573;BME280;73017;50.810;4.428;2024-01-07T02:56:29;101161.09;;;19.88;45.21
74573;BME280;73017;50.810;4.428;2024-01-07T02:58:55;101165.84;;;19.82;45.17
74573;BME280;73017;50.810;4.428;2024-01-07T03:01:23;101161.75;;;19.85;45.12
74573;BME280;73017;50.810;4.428;2024-01-07T03:03:50;101136.25;;;19.68;44.70
74573;BME280;73017;50.810;4.428;2024-01-07T03:06:16;101165.41;;;19.80;45.46
74573;BME280;73017;50.810;4.428;2024-01-07T03:08:42;101136.25;;;19.68;45.07
74573;BME280;73017;50.810;4.428;2024-01-07T03:11:08;101172.38;;;19.85;46.00
74573;BME280;73017;50.810;4.428;2024-01-07T03:13:33;101168.41;;;19.78;45.43
74573;BME280;73017;50.810;4.428;2024-01-07T03:15:59;101177.34;;;19.86;45.00
74573;BME280;73017;50.810;4.428;2024-01-07T03:18:25;101155.13;;;19.66;46.41
74573;BME280;73017;50.810;4.428;2024-01-07T03:20:51;101159.34;;;19.67;45.83
74573;BME280;73017;50.810;4.428;2024-01-07T03:23:17;101183.66;;;19.81;44.97
74573;BME280;73017;50.810;4.428;2024-01-07T03:25:44;101165.41;;;19.68;45.80
74573;BME280;73017;50.810;4.428;2024-01-07T03:28:09;101177.22;;;19.83;45.93
74573;BME280;73017;50.810;4.428;2024-01-07T03:30:34;101165.09;;;19.69;44.99
74573;BME280;73017;50.810;4.428;2024-01-07T03:33:00;101184.53;;;19.86;44.49
74573;BME280;73017;50.810;4.428;2024-01-07T03:35:25;101184.53;;;19.86;46.16
74573;BME280;73017;50.810;4.428;2024-01-07T03:37:51;101166.19;;;19.68;45.18
74573;BME280;73017;50.810;4.428;2024-01-07T03:40:16;101167.44;;;19.71;44.71
74573;BME280;73017;50.810;4.428;2024-01-07T03:42:42;101197.09;;;19.89;44.89
74573;BME280;73017;50.810;4.428;2024-01-07T03:45:08;101195.78;;;19.83;44.45
74573;BME280;73017;50.810;4.428;2024-01-07T03:47:33;101176.94;;;19.72;45.30
74573;BME280;73017;50.810;4.428;2024-01-07T03:49:59;101183.00;;;19.72;44.60
74573;BME280;73017;50.810;4.428;2024-01-07T03:52:24;101202.34;;;19.85;44.57
74573;BME280;73017;50.810;4.428;2024-01-07T03:54:50;101207.19;;;19.83;44.64
74573;BME280;73017;50.810;4.428;2024-01-07T03:57:15;101209.84;;;19.83;44.61
74573;BME280;73017;50.810;4.428;2024-01-07T03:59:41;101213.28;;;19.84;45.03
74573;BME280;73017;50.810;4.428;2024-01-07T04:02:06;101212.16;;;19.85;45.38
74573;BME280;73017;50.810;4.428;2024-01-07T04:04:32;101206.50;;;19.86;44.94
74573;BME280;73017;50.810;4.428;2024-01-07T04:06:58;101216.38;;;19.86;45.73
74573;BME280;73017;50.810;4.428;2024-01-07T04:09:23;101207.97;;;19.84;45.29
74573;BME280;73017;50.810;4.428;2024-01-07T04:11:49;101227.41;;;19.88;45.52
74573;BME280;73017;50.810;4.428;2024-01-07T04:14:15;101194.03;;;19.74;45.68
74573;BME280;73017;50.810;4.428;2024-01-07T04:16:40;101222.22;;;19.91;45.23
74573;BME280;73017;50.810;4.428;2024-01-07T04:19:06;101189.09;;;19.73;46.07
74573;BME280;73017;50.810;4.428;2024-01-07T04:21:31;101215.69;;;19.89;44.75
74573;BME280;73017;50.810;4.428;2024-01-07T04:23:57;101226.72;;;19.91;44.39
74573;BME280;73017;50.810;4.428;2024-01-07T04:26:22;101211.19;;;19.77;43.76
74573;BME280;73017;50.810;4.428;2024-01-07T04:28:48;101202.69;;;19.71;44.93
74573;BME280;73017;50.810;4.428;2024-01-07T04:31:13;101226.66;;;19.87;45.67
74573;BME280;73017;50.810;4.428;2024-01-07T04:33:39;101225.84;;;19.87;44.67
74573;BME280;73017;50.810;4.428;2024-01-07T04:36:05;101221.66;;;19.86;45.16
74573;BME280;73017;50.810;4.428;2024-01-07T04:38:30;101198.44;;;19.70;45.40
74573;BME280;73017;50.810;4.428;2024-01-07T04:40:56;101226.28;;;19.89;45.06
74573;BME280;73017;50.810;4.428;2024-01-07T04:43:21;101212.41;;;19.79;44.00
74573;BME280;73017;50.810;4.428;2024-01-07T04:45:47;101223.19;;;19.87;44.81
74573;BME280;73017;50.810;4.428;2024-01-07T04:48:13;101232.03;;;19.91;45.90
74573;BME280;73017;50.810;4.428;2024-01-07T04:50:42;101220.91;;;19.85;44.92
74573;BME280;73017;50.810;4.428;2024-01-07T04:53:08;101234.69;;;19.91;44.53
74573;BME280;73017;50.810;4.428;2024-01-07T04:55:33;101211.84;;;19.74;43.43
74573;BME280;73017;50.810;4.428;2024-01-07T04:57:59;101237.69;;;19.89;44.96
74573;BME280;73017;50.810;4.428;2024-01-07T05:00:25;101241.13;;;19.90;43.95
74573;BME280;73017;50.810;4.428;2024-01-07T05:02:50;101231.84;;;19.84;44.58
74573;BME280;73017;50.810;4.428;2024-01-07T05:05:16;101236.13;;;19.88;45.06
74573;BME280;73017;50.810;4.428;2024-01-07T05:07:41;101240.34;;;19.89;44.70
74573;BME280;73017;50.810;4.428;2024-01-07T05:10:07;101242.31;;;19.92;45.70
74573;BME280;73017;50.810;4.428;2024-01-07T05:12:33;101218.28;;;19.73;45.75
74573;BME280;73017;50.810;4.428;2024-01-07T05:14:58;101222.13;;;19.75;45.26
74573;BME280;73017;50.810;4.428;2024-01-07T05:17:24;101252.94;;;19.92;45.05
74573;BME280;73017;50.810;4.428;2024-01-07T05:19:49;101252.59;;;19.94;44.93
74573;BME280;73017;50.810;4.428;2024-01-07T05:22:14;101239.38;;;19.81;44.78
74573;BME280;73017;50.810;4.428;2024-01-07T05:24:40;101252.94;;;19.92;44.63
74573;BME280;73017;50.810;4.428;2024-01-07T05:27:06;101237.38;;;19.78;44.93
74573;BME280;73017;50.810;4.428;2024-01-07T05:29:32;101258.13;;;19.89;45.11
74573;BME280;73017;50.810;4.428;2024-01-07T05:32:01;101265.53;;;19.95;45.25
74573;BME280;73017;50.810;4.428;2024-01-07T05:34:28;101248.66;;;19.75;44.62
74573;BME280;73017;50.810;4.428;2024-01-07T05:36:53;101263.09;;;19.90;45.46
74573;BME280;73017;50.810;4.428;2024-01-07T05:39:19;101281.34;;;19.92;44.54
74573;BME280;73017;50.810;4.428;2024-01-07T05:41:45;101286.78;;;19.95;45.00
74573;BME280;73017;50.810;4.428;2024-01-07T05:44:11;101270.75;;;19.79;44.81
74573;BME280;73017;50.810;4.428;2024-01-07T05:46:41;101295.81;;;19.94;44.80
74573;BME280;73017;50.810;4.428;2024-01-07T05:49:07;101294.94;;;19.90;45.02
74573;BME280;73017;50.810;4.428;2024-01-07T05:51:33;101292.84;;;19.96;45.04
74573;BME280;73017;50.810;4.428;2024-01-07T05:53:58;101299.25;;;19.95;44.85
74573;BME280;73017;50.810;4.428;2024-01-07T05:56:24;101284.00;;;19.79;45.07
74573;BME280;73017;50.810;4.428;2024-01-07T05:58:49;101282.91;;;19.80;45.17
74573;BME280;73017;50.810;4.428;2024-01-07T06:01:21;101281.25;;;19.76;44.62
74573;BME280;73017;50.810;4.428;2024-01-07T06:03:48;101309.09;;;19.94;44.64
74573;BME280;73017;50.810;4.428;2024-01-07T06:06:14;101303.47;;;19.84;43.82
74573;BME280;73017;50.810;4.428;2024-01-07T06:08:43;101298.81;;;19.80;44.93
74573;BME280;73017;50.810;4.428;2024-01-07T06:11:09;101323.13;;;19.95;44.67
74573;BME280;73017;50.810;4.428;2024-01-07T06:13:36;101313.75;;;19.85;44.52
74573;BME280;73017;50.810;4.428;2024-01-07T06:16:01;101330.63;;;19.93;44.60
74573;BME280;73017;50.810;4.428;2024-01-07T06:18:27;101329.44;;;19.90;43.76
74573;BME280;73017;50.810;4.428;2024-01-07T06:20:53;101307.00;;;19.75;44.95
74573;BME280;73017;50.810;4.428;2024-01-07T06:23:18;101330.19;;;19.91;45.23
74573;BME280;73017;50.810;4.428;2024-01-07T06:25:44;101314.63;;;19.77;44.71
74573;BME280;73017;50.810;4.428;2024-01-07T06:28:09;101341.59;;;19.91;44.20
74573;BME280;73017;50.810;4.428;2024-01-07T06:30:37;101341.59;;;19.91;43.77
74573;BME280;73017;50.810;4.428;2024-01-07T06:33:03;101316.06;;;19.74;45.19
74573;BME280;73017;50.810;4.428;2024-01-07T06:35:30;101318.38;;;19.76;45.17
74573;BME280;73017;50.810;4.428;2024-01-07T06:37:56;101352.97;;;19.92;43.79
74573;BME280;73017;50.810;4.428;2024-01-07T06:40:21;101360.63;;;19.93;44.76
74573;BME280;73017;50.810;4.428;2024-01-07T06:42:48;101361.06;;;19.95;44.66
74573;BME280;73017;50.810;4.428;2024-01-07T06:45:14;101360.63;;;19.93;44.54
74573;BME280;73017;50.810;4.428;2024-01-07T06:47:40;101350.31;;;19.79;43.96
74573;BME280;73017;50.810;4.428;2024-01-07T06:50:06;101344.59;;;19.77;44.32
74573;BME280;73017;50.810;4.428;2024-01-07T06:52:32;101334.81;;;19.69;45.00
74573;BME280;73017;50.810;4.428;2024-01-07T06:54:58;101373.53;;;19.95;44.84
74573;BME280;73017;50.810;4.428;2024-01-07T06:57:23;101366.38;;;19.83;45.03
74573;BME280;73017;50.810;4.428;2024-01-07T06:59:49;101364.03;;;19.81;45.24
74573;BME280;73017;50.810;4.428;2024-01-07T07:02:14;101366.81;;;19.85;43.91
74573;BME280;73017;50.810;4.428;2024-01-07T07:04:40;101369.34;;;19.81;43.01
74573;BME280;73017;50.810;4.428;2024-01-07T07:07:05;101396.75;;;19.98;43.08
74573;BME280;73017;50.810;4.428;2024-01-07T07:09:30;101367.91;;;19.84;43.76
74573;BME280;73017;50.810;4.428;2024-01-07T07:11:56;101400.41;;;20.06;43.52
74573;BME280;73017;50.810;4.428;2024-01-07T07:14:21;101406.50;;;20.06;42.81
74573;BME280;73017;50.810;4.428;2024-01-07T07:16:47;101411.78;;;20.06;43.18
74573;BME280;73017;50.810;4.428;2024-01-07T07:19:12;101409.16;;;20.06;42.46
74573;BME280;73017;50.810;4.428;2024-01-07T07:21:40;101383.03;;;19.84;42.01
74573;BME280;73017;50.810;4.428;2024-01-07T07:24:06;101427.59;;;20.02;43.39
74573;BME280;73017;50.810;4.428;2024-01-07T07:26:32;101427.41;;;20.08;43.07
74573;BME280;73017;50.810;4.428;2024-01-07T07:28:58;101399.84;;;19.88;43.61
74573;BME280;73017;50.810;4.428;2024-01-07T07:31:25;101409.34;;;19.89;42.95
74573;BME280;73017;50.810;4.428;2024-01-07T07:33:50;101402.50;;;19.88;43.21
74573;BME280;73017;50.810;4.428;2024-01-07T07:36:17;101435.13;;;20.00;42.61
74573;BME280;73017;50.810;4.428;2024-01-07T07:38:42;101404.59;;;19.82;42.90
74573;BME280;73017;50.810;4.428;2024-01-07T07:41:08;101436.69;;;20.01;43.27
74573;BME280;73017;50.810;4.428;2024-01-07T07:43:34;101442.50;;;19.95;43.06
74573;BME280;73017;50.810;4.428;2024-01-07T07:45:59;101418.63;;;19.83;42.51
74573;BME280;73017;50.810;4.428;2024-01-07T07:48:27;101422.72;;;19.80;42.71
74573;BME280;73017;50.810;4.428;2024-01-07T07:50:53;101444.63;;;20.01;43.12
74573;BME280;73017;50.810;4.428;2024-01-07T07:53:18;101449.16;;;20.01;43.20
74573;BME280;73017;50.810;4.428;2024-01-07T07:55:44;101452.59;;;20.01;43.40
74573;BME280;73017;50.810;4.428;2024-01-07T07:58:09;101455.13;;;19.98;42.97
74573;BME280;73017;50.810;4.428;2024-01-07T08:00:35;101463.09;;;19.98;43.34
74573;BME280;73017;50.810;4.428;2024-01-07T08:03:01;101459.78;;;20.01;43.71
74573;BME280;73017;50.810;4.428;2024-01-07T08:05:26;101439.84;;;19.83;42.23
74573;BME280;73017;50.810;4.428;2024-01-07T08:07:52;101459.56;;;19.94;41.85
74573;BME280;73017;50.810;4.428;2024-01-07T08:10:17;101438.94;;;19.78;41.78
74573;BME280;73017;50.810;4.428;2024-01-07T08:12:43;101467.84;;;19.92;42.90
74573;BME280;73017;50.810;4.428;2024-01-07T08:15:08;101450.38;;;19.79;42.76
74573;BME280;73017;50.810;4.428;2024-01-07T08:17:34;101456.44;;;19.79;42.79
74573;BME280;73017;50.810;4.428;2024-01-07T08:19:59;101469.91;;;19.87;42.59
74573;BME280;73017;50.810;4.428;2024-01-07T08:22:26;101485.84;;;19.99;42.27
74573;BME280;73017;50.810;4.428;2024-01-07T08:24:52;101464.06;;;19.81;42.37
74573;BME280;73017;50.810;4.428;2024-01-07T08:27:17;101486.53;;;19.96;42.13
74573;BME280;73017;50.810;4.428;2024-01-07T08:29:43;101467.03;;;19.79;41.85
74573;BME280;73017;50.810;4.428;2024-01-07T08:32:11;101491.38;;;19.94;42.50
74573;BME280;73017;50.810;4.428;2024-01-07T08:34:38;101480.75;;;19.81;41.60
74573;BME280;73017;50.810;4.428;2024-01-07T08:37:03;101502.00;;;19.94;41.53
74573;BME280;73017;50.810;4.428;2024-01-07T08:39:29;101503.09;;;19.93;42.12
74573;BME280;73017;50.810;4.428;2024-01-07T08:41:55;101502.31;;;19.92;41.38
74573;BME280;73017;50.810;4.428;2024-01-07T08:44:20;101506.09;;;19.91;41.41
74573;BME280;73017;50.810;4.428;2024-01-07T08:46:46;101487.16;;;19.80;41.86
74573;BME280;73017;50.810;4.428;2024-01-07T08:49:11;101482.19;;;19.79;41.74
74573;BME280;73017;50.810;4.428;2024-01-07T08:51:37;101498.47;;;19.90;41.30
74573;BME280;73017;50.810;4.428;2024-01-07T08:54:03;101501.22;;;19.93;41.92
74573;BME280;73017;50.810;4.428;2024-01-07T08:56:29;101512.94;;;19.92;42.26
74573;BME280;73017;50.810;4.428;2024-01-07T08:58:54;101506.88;;;19.92;42.12
74573;BME280;73017;50.810;4.428;2024-01-07T09:01:20;101489.94;;;19.84;42.64
74573;BME280;73017;50.810;4.428;2024-01-07T09:03:45;101514.59;;;19.97;41.76
74573;BME280;73017;50.810;4.428;2024-01-07T09:06:10;101526.00;;;19.97;41.19
74573;BME280;73017;50.810;4.428;2024-01-07T09:08:36;101519.00;;;19.93;41.76
74573;BME280;73017;50.810;4.428;2024-01-07T09:11:05;101506.84;;;19.79;41.42
74573;BME280;73017;50.810;4.428;2024-01-07T09:13:31;101533.53;;;19.95;41.39
74573;BME280;73017;50.810;4.428;2024-01-07T09:15:57;101507.91;;;19.78;41.56
74573;BME280;73017;50.810;4.428;2024-01-07T09:18:23;101534.75;;;19.98;41.68
74573;BME280;73017;50.810;4.428;2024-01-07T09:20:48;101523.84;;;19.78;41.69
74573;BME280;73017;50.810;4.428;2024-01-07T09:23:14;101549.44;;;19.95;41.61
74573;BME280;73017;50.810;4.428;2024-01-07T09:25:40;101553.63;;;19.96;40.68
74573;BME280;73017;50.810;4.428;2024-01-07T09:28:06;101542.66;;;19.86;41.73
74573;BME280;73017;50.810;4.428;2024-01-07T09:30:32;101545.00;;;19.87;41.14
74573;BME280;73017;50.810;4.428;2024-01-07T09:32:57;101573.78;;;19.97;41.79
74573;BME280;73017;50.810;4.428;2024-01-07T09:35:23;101557.59;;;19.90;41.45
74573;BME280;73017;50.810;4.428;2024-01-07T09:37:48;101553.16;;;19.82;40.74
74573;BME280;73017;50.810;4.428;2024-01-07T09:40:18;101578.63;;;19.95;41.10
74573;BME280;73017;50.810;4.428;2024-01-07T09:42:44;101565.22;;;19.92;41.73
74573;BME280;73017;50.810;4.428;2024-01-07T09:45:13;101563.47;;;19.96;41.73
74573;BME280;73017;50.810;4.428;2024-01-07T09:47:40;101580.75;;;20.02;41.54
74573;BME280;73017;50.810;4.428;2024-01-07T09:50:06;101554.72;;;19.83;40.53
74573;BME280;73017;50.810;4.428;2024-01-07T09:52:35;101580.94;;;19.97;40.24
74573;BME280;73017;50.810;4.428;2024-01-07T09:55:03;101569.19;;;19.86;41.21
74573;BME280;73017;50.810;4.428;2024-01-07T09:57:29;101596.22;;;20.00;41.53
74573;BME280;73017;50.810;4.428;2024-01-07T09:59:55;101594.34;;;20.00;40.85
74573;BME280;73017;50.810;4.428;2024-01-07T10:02:20;101579.94;;;19.89;41.04
74573;BME280;73017;50.810;4.428;2024-01-07T10:04:48;101577.16;;;19.86;40.59
74573;BME280;73017;50.810;4.428;2024-01-07T10:07:15;101575.41;;;19.90;41.48
74573;BME280;73017;50.810;4.428;2024-01-07T10:09:41;101597.22;;;19.95;40.43
74573;BME280;73017;50.810;4.428;2024-01-07T10:12:10;101603.50;;;20.03;40.94
74573;BME280;73017;50.810;4.428;2024-01-07T10:14:38;101578.25;;;19.85;40.36
74573;BME280;73017;50.810;4.428;2024-01-07T10:17:15;101581.69;;;19.85;40.45
74573;BME280;73017;50.810;4.428;2024-01-07T10:19:43;101602.16;;;19.97;40.65
74573;BME280;73017;50.810;4.428;2024-01-07T10:22:12;101611.81;;;20.01;40.76
74573;BME280;73017;50.810;4.428;2024-01-07T10:24:41;101612.13;;;20.00;40.48
74573;BME280;73017;50.810;4.428;2024-01-07T10:27:09;101609.69;;;19.95;40.17
74573;BME280;73017;50.810;4.428;2024-01-07T10:29:36;101618.53;;;19.99;40.56
74573;BME280;73017;50.810;4.428;2024-01-07T10:32:02;101626.84;;;19.97;40.06
74573;BME280;73017;50.810;4.428;2024-01-07T10:34:36;101598.91;;;19.79;40.60
74573;BME280;73017;50.810;4.428;2024-01-07T10:37:04;101598.47;;;19.77;39.85
74573;BME280;73017;50.810;4.428;2024-01-07T10:39:32;101615.66;;;19.92;40.45
74573;BME280;73017;50.810;4.428;2024-01-07T10:41:58;101609.53;;;19.79;40.18
74573;BME280;73017;50.810;4.428;2024-01-07T10:44:30;101614.53;;;19.93;40.47
74573;BME280;73017;50.810;4.428;2024-01-07T10:46:57;101625.94;;;19.93;41.13
74573;BME280;73017;50.810;4.428;2024-01-07T10:49:27;101613.44;;;19.94;41.00
74573;BME280;73017;50.810;4.428;2024-01-07T10:54:24;101594.25;;;19.76;39.54
74573;BME280;73017;50.810;4.428;2024-01-07T10:56:58;101617.84;;;19.90;39.76
74573;BME280;73017;50.810;4.428;2024-01-07T10:59:25;101626.25;;;19.92;39.80
74573;BME280;73017;50.810;4.428;2024-01-07T11:01:52;101597.22;;;19.74;39.69
74573;BME280;73017;50.810;4.428;2024-01-07T11:04:26;101595.69;;;19.73;40.04
74573;BME280;73017;50.810;4.428;2024-01-07T11:07:03;101627.78;;;19.93;40.30
74573;BME280;73017;50.810;4.428;2024-01-07T11:09:38;101629.38;;;19.94;40.76
74573;BME280;73017;50.810;4.428;2024-01-07T11:12:05;101631.56;;;19.92;39.97
74573;BME280;73017;50.810;4.428;2024-01-07T11:14:34;101632.78;;;19.94;40.23
74573;BME280;73017;50.810;4.428;2024-01-07T11:17:00;101630.44;;;19.93;40.53
74573;BME280;73017;50.810;4.428;2024-01-07T11:19:26;101608.28;;;19.76;39.76
74573;BME280;73017;50.810;4.428;2024-01-07T11:21:51;101637.63;;;19.92;39.97
74573;BME280;73017;50.810;4.428;2024-01-07T11:24:38;101633.91;;;19.93;39.46
74573;BME280;73017;50.810;4.428;2024-01-07T11:27:03;101616.38;;;19.80;39.56
74573;BME280;73017;50.810;4.428;2024-01-07T11:29:31;101615.47;;;19.76;40.68
74573;BME280;73017;50.810;4.428;2024-01-07T11:31:57;101633.91;;;19.93;39.86
74573;BME280;73017;50.810;4.428;2024-01-07T11:34:42;101616.03;;;19.81;40.19
74573;BME280;73017;50.810;4.428;2024-01-07T11:37:14;101643.41;;;19.94;39.67
74573;BME280;73017;50.810;4.428;2024-01-07T11:39:44;101615.91;;;19.78;39.94
74573;BME280;73017;50.810;4.428;2024-01-07T11:42:10;101605.16;;;19.74;39.38
74573;BME280;73017;50.810;4.428;2024-01-07T11:44:37;101607.19;;;19.77;40.05
74573;BME280;73017;50.810;4.428;2024-01-07T11:47:04;101609.84;;;19.77;39.88
74573;BME280;73017;50.810;4.428;2024-01-07T11:49:33;101613.94;;;19.75;38.88
74573;BME280;73017;50.810;4.428;2024-01-07T11:51:59;101647.63;;;19.95;39.59
74573;BME280;73017;50.810;4.428;2024-01-07T11:54:24;101628.00;;;19.88;39.44
74573;BME280;73017;50.810;4.428;2024-01-07T11:56:50;101644.16;;;19.95;39.51
74573;BME280;73017;50.810;4.428;2024-01-07T11:59:15;101641.97;;;19.97;40.45
74573;BME280;73017;50.810;4.428;2024-01-07T12:01:41;101614.16;;;19.82;40.07
74573;BME280;73017;50.810;4.428;2024-01-07T12:04:07;101639.75;;;19.99;40.23
74573;BME280;73017;50.810;4.428;2024-01-07T12:06:34;101635.56;;;19.98;39.64
74573;BME280;73017;50.810;4.428;2024-01-07T12:09:00;101636.03;;;20.00;39.90
74573;BME280;73017;50.810;4.428;2024-01-07T12:11:26;101639.75;;;19.99;40.09
74573;BME280;73017;50.810;4.428;2024-01-07T12:13:52;101644.75;;;20.00;39.65
74573;BME280;73017;50.810;4.428;2024-01-07T12:16:17;101634.44;;;19.99;40.00
74573;BME280;73017;50.810;4.428;2024-01-07T12:18:43;101600.53;;;19.71;39.94
74573;BME280;73017;50.810;4.428;2024-01-07T12:21:08;101637.31;;;19.94;40.22
74573;BME280;73017;50.810;4.428;2024-01-07T12:23:35;101640.44;;;19.96;39.34
74573;BME280;73017;50.810;4.428;2024-01-07T12:26:08;101643.41;;;19.94;39.79
74573;BME280;73017;50.810;4.428;2024-01-07T12:28:34;101638.22;;;19.98;39.97
74573;BME280;73017;50.810;4.428;2024-01-07T12:31:00;101649.03;;;19.93;39.64
74573;BME280;73017;50.810;4.428;2024-01-07T12:33:27;101616.50;;;19.84;39.84
74573;BME280;73017;50.810;4.428;2024-01-07T12:35:54;101622.13;;;19.82;39.29
74573;BME280;73017;50.810;4.428;2024-01-07T12:38:27;101614.94;;;19.83;39.65
74573;BME280;73017;50.810;4.428;2024-01-07T12:40:53;101647.72;;;19.99;39.91
74573;BME280;73017;50.810;4.428;2024-01-07T12:43:19;101647.53;;;20.04;40.04
74573;BME280;73017;50.810;4.428;2024-01-07T12:45:44;101625.50;;;19.91;39.88
74573;BME280;73017;50.810;4.428;2024-01-07T12:48:11;101647.22;;;20.06;39.44